Time;durP1;ratioP1;P1;durP2;ratioP2;P2;SDS_P1;SDS_P2;PMS_P1;PMS_P2;Temp;Humidity;BMP_temperature;BMP_pressure;BME280_temperature;BME280_humidity;BME280_pressure;Samples;Min_cycle;Max_cycle;Signal;HPM_P1;HPM_P2
2022/03/03 00:01:50;;;;;;;35.33;21.85;;;7.50;99.90;;;;;;5003323;28;20046;-66
2022/03/03 00:04:17;;;;;;;36.83;21.23;;;7.60;99.90;;;;;;5018063;28;20046;-66
2022/03/03 00:06:44;;;;;;;36.92;21.77;;;7.60;99.90;;;;;;5001086;28;20053;-65
2022/03/03 00:09:11;;;;;;;38.17;22.35;;;7.60;99.90;;;;;;4992898;28;20081;-66
2022/03/03 00:11:38;;;;;;;43.78;22.08;;;7.60;99.90;;;;;;4991113;28;20061;-64
2022/03/03 00:14:05;;;;;;;37.90;21.08;;;7.50;99.90;;;;;;4998987;28;20580;-66
2022/03/03 00:16:32;;;;;;;36.65;20.65;;;7.50;99.90;;;;;;4985906;28;20054;-65
2022/03/03 00:18:59;;;;;;;40.55;22.38;;;7.50;99.90;;;;;;4999847;28;20066;-65
2022/03/03 00:21:26;;;;;;;39.53;21.80;;;7.60;99.90;;;;;;4991661;28;20053;-65
2022/03/03 00:23:52;;;;;;;51.60;24.73;;;7.50;99.90;;;;;;4998185;28;20143;-65
2022/03/03 00:26:19;;;;;;;37.28;22.02;;;7.50;99.90;;;;;;5008259;28;20101;-65
2022/03/03 00:28:46;;;;;;;42.13;22.92;;;7.50;99.90;;;;;;4983634;28;20112;-64
2022/03/03 00:31:13;;;;;;;37.75;22.85;;;7.50;99.90;;;;;;4972098;28;20058;-64
2022/03/03 00:33:40;;;;;;;34.72;21.75;;;7.50;99.90;;;;;;4995235;28;20046;-65
2022/03/03 00:36:07;;;;;;;36.88;22.30;;;7.50;99.90;;;;;;5008486;28;20042;-66
2022/03/03 00:38:34;;;;;;;43.53;22.98;;;7.50;99.90;;;;;;5003862;28;20477;-65
2022/03/03 00:41:01;;;;;;;37.20;22.20;;;7.50;99.90;;;;;;4989241;28;20043;-65
2022/03/03 00:43:27;;;;;;;32.35;20.70;;;7.60;99.90;;;;;;4992812;28;20108;-65
2022/03/03 00:45:54;;;;;;;37.30;22.67;;;7.60;99.90;;;;;;5006360;28;20087;-65
2022/03/03 00:48:21;;;;;;;42.13;22.92;;;7.50;99.90;;;;;;4986306;28;20074;-64
2022/03/03 00:50:48;;;;;;;37.72;21.30;;;7.50;99.90;;;;;;4993087;28;20443;-65
2022/03/03 00:53:14;;;;;;;42.42;22.00;;;7.50;99.90;;;;;;4992799;28;20501;-64
2022/03/03 00:55:41;;;;;;;44.83;23.08;;;7.50;99.90;;;;;;5001895;28;20517;-65
2022/03/03 00:58:09;;;;;;;50.15;22.40;;;7.50;99.90;;;;;;5003682;28;20074;-65
2022/03/03 01:00:36;;;;;;;34.50;20.52;;;7.50;99.90;;;;;;4997119;28;20410;-65
2022/03/03 01:03:03;;;;;;;39.97;22.00;;;7.50;99.90;;;;;;4992718;28;20115;-65
2022/03/03 01:05:30;;;;;;;45.70;24.35;;;7.50;99.90;;;;;;4997280;28;20050;-65
2022/03/03 01:07:57;;;;;;;35.33;23.13;;;7.50;99.90;;;;;;4988615;28;20458;-66
2022/03/03 01:10:23;;;;;;;39.53;22.25;;;7.50;99.90;;;;;;4999489;28;20054;-65
2022/03/03 01:12:50;;;;;;;41.58;22.77;;;7.50;99.90;;;;;;4971590;28;20085;-65
2022/03/03 01:15:17;;;;;;;40.63;21.38;;;7.50;99.90;;;;;;4996287;28;20730;-65
2022/03/03 01:17:44;;;;;;;40.45;22.80;;;7.50;99.90;;;;;;5008194;28;20046;-66
2022/03/03 01:20:11;;;;;;;38.63;22.67;;;7.40;99.90;;;;;;5001521;28;20122;-63
2022/03/03 01:22:38;;;;;;;35.45;21.25;;;7.40;99.90;;;;;;4988165;28;20391;-65
2022/03/03 01:25:05;;;;;;;40.95;22.38;;;7.40;99.90;;;;;;4996272;28;20501;-64
2022/03/03 01:27:32;;;;;;;42.15;22.20;;;7.40;99.90;;;;;;4988513;28;20081;-64
2022/03/03 01:30:01;;;;;;;42.75;21.90;;;7.40;99.90;;;;;;4991926;28;20057;-65
2022/03/03 01:32:27;;;;;;;42.13;24.15;;;7.40;99.90;;;;;;5005386;28;20092;-65
2022/03/03 01:34:54;;;;;;;41.67;23.45;;;7.40;99.90;;;;;;4655236;28;9999688;-65
2022/03/03 01:37:21;;;;;;;43.30;23.02;;;7.50;99.90;;;;;;4989420;28;20057;-64
2022/03/03 01:39:48;;;;;;;40.63;22.38;;;7.50;99.90;;;;;;4992091;28;20043;-65
2022/03/03 01:42:15;;;;;;;38.53;21.65;;;7.50;99.90;;;;;;5001101;28;20084;-65
2022/03/03 01:44:43;;;;;;;40.55;21.55;;;7.50;99.90;;;;;;5002905;28;20050;-65
2022/03/03 01:47:17;;;;;;;42.88;24.27;;;7.50;99.90;;;;;;4996369;28;20046;-64
2022/03/03 01:49:44;;;;;;;43.40;23.58;;;7.50;99.90;;;;;;4992317;28;20050;-65
2022/03/03 01:52:11;;;;;;;38.30;23.50;;;7.50;99.90;;;;;;4997719;28;20073;-65
2022/03/03 01:54:38;;;;;;;41.17;21.85;;;7.50;99.90;;;;;;5004121;28;20081;-64
2022/03/03 01:57:06;;;;;;;42.22;22.20;;;7.60;99.90;;;;;;4998825;28;20096;-65
2022/03/03 01:59:33;;;;;;;36.45;23.00;;;7.60;99.90;;;;;;4971510;28;20054;-65
2022/03/03 02:02:00;;;;;;;38.63;23.10;;;7.60;99.90;;;;;;4996490;28;20092;-65
2022/03/03 02:04:27;;;;;;;42.05;22.10;;;7.60;99.90;;;;;;4989681;28;20065;-65
2022/03/03 02:06:54;;;;;;;39.88;22.35;;;7.60;99.90;;;;;;4977856;28;20037;-65
2022/03/03 02:09:20;;;;;;;34.92;22.73;;;7.60;99.90;;;;;;5007393;28;20123;-65
2022/03/03 02:11:50;;;;;;;42.13;21.67;;;7.60;99.90;;;;;;5001192;28;20064;-65
2022/03/03 02:14:18;;;;;;;35.10;20.92;;;7.60;99.90;;;;;;4970546;28;20082;-64
2022/03/03 02:16:44;;;;;;;42.03;22.95;;;7.70;99.90;;;;;;4992126;28;20050;-66
2022/03/03 02:19:17;;;;;;;40.10;24.50;;;7.60;99.90;;;;;;5006861;28;20571;-65
2022/03/03 02:21:47;;;;;;;41.55;23.08;;;7.70;99.90;;;;;;5002963;28;20731;-65
2022/03/03 02:24:15;;;;;;;39.25;22.05;;;7.70;99.90;;;;;;4989043;28;20490;-65
2022/03/03 02:26:42;;;;;;;39.25;23.25;;;7.70;99.90;;;;;;4991914;28;20074;-65
2022/03/03 02:29:09;;;;;;;43.05;23.70;;;7.70;99.90;;;;;;4986514;28;20050;-65
2022/03/03 02:31:36;;;;;;;41.60;23.85;;;7.70;99.90;;;;;;5002145;28;20497;-65
2022/03/03 02:34:03;;;;;;;40.15;23.38;;;7.70;99.90;;;;;;4976055;28;20134;-65
2022/03/03 02:36:30;;;;;;;41.28;23.75;;;7.70;99.90;;;;;;4991619;28;20096;-66
2022/03/03 02:38:58;;;;;;;43.03;24.27;;;7.70;99.90;;;;;;4999530;28;20058;-65
2022/03/03 02:41:25;;;;;;;34.25;22.75;;;7.70;99.90;;;;;;4985839;28;20077;-65
2022/03/03 02:43:52;;;;;;;39.28;22.63;;;7.60;99.90;;;;;;5001709;28;20532;-64
2022/03/03 02:46:19;;;;;;;39.00;23.95;;;7.70;99.90;;;;;;4976458;28;20435;-64
2022/03/03 02:48:46;;;;;;;40.85;24.00;;;7.70;99.90;;;;;;4999459;28;20499;-65
2022/03/03 02:51:13;;;;;;;40.40;21.67;;;7.70;99.90;;;;;;5009824;28;20045;-65
2022/03/03 02:53:39;;;;;;;38.47;23.38;;;7.70;99.90;;;;;;5001845;28;20050;-65
2022/03/03 02:56:07;;;;;;;39.40;23.17;;;7.70;99.90;;;;;;4991156;28;20050;-65
2022/03/03 02:58:33;;;;;;;47.38;21.83;;;7.70;99.90;;;;;;4980208;28;20049;-65
2022/03/03 03:01:00;;;;;;;36.15;22.42;;;7.70;99.90;;;;;;5010603;28;20512;-65
2022/03/03 03:03:28;;;;;;;37.72;23.23;;;7.70;99.90;;;;;;5004517;28;20077;-65
2022/03/03 03:05:55;;;;;;;35.75;21.25;;;7.70;99.90;;;;;;4990934;28;20086;-66
2022/03/03 03:08:21;;;;;;;39.75;23.73;;;7.70;99.90;;;;;;4994941;28;20414;-65
2022/03/03 03:10:48;;;;;;;35.30;22.65;;;7.70;99.90;;;;;;4991737;28;20127;-65
2022/03/03 03:13:15;;;;;;;43.70;22.55;;;7.70;99.90;;;;;;5005493;28;20050;-65
2022/03/03 03:15:45;;;;;;;37.22;22.10;;;7.70;99.90;;;;;;4994268;28;20066;-65
2022/03/03 03:18:19;;;;;;;37.38;22.73;;;7.70;99.90;;;;;;4994662;28;20050;-65
2022/03/03 03:20:47;;;;;;;40.08;23.15;;;7.70;99.90;;;;;;5006007;28;20081;-65
2022/03/03 03:23:15;;;;;;;36.88;23.40;;;7.80;99.90;;;;;;5005410;28;20092;-65
2022/03/03 03:25:43;;;;;;;37.38;23.90;;;7.70;99.90;;;;;;4996673;28;20097;-66
2022/03/03 03:28:11;;;;;;;41.47;23.58;;;7.70;99.90;;;;;;4994689;28;20042;-65
2022/03/03 03:30:38;;;;;;;38.78;22.88;;;7.70;99.90;;;;;;4984220;28;20430;-65
2022/03/03 03:33:05;;;;;;;44.35;24.08;;;7.70;99.90;;;;;;5004988;28;20125;-65
2022/03/03 03:35:31;;;;;;;39.05;22.70;;;7.80;99.90;;;;;;4984068;28;20093;-66
2022/03/03 03:37:58;;;;;;;40.13;25.73;;;7.70;99.90;;;;;;4992341;28;20086;-66
2022/03/03 03:40:25;;;;;;;37.97;21.80;;;7.70;99.90;;;;;;4998902;28;20084;-66
2022/03/03 03:42:52;;;;;;;39.42;24.02;;;7.70;99.90;;;;;;4991250;28;20053;-65
2022/03/03 03:45:19;;;;;;;38.63;22.95;;;7.70;99.90;;;;;;5001744;28;20181;-64
2022/03/03 03:47:46;;;;;;;40.90;22.75;;;7.70;99.90;;;;;;4990314;28;20112;-64
2022/03/03 03:50:13;;;;;;;40.08;24.10;;;7.70;99.90;;;;;;4979261;28;20468;-65
2022/03/03 03:52:40;;;;;;;43.58;24.48;;;7.70;99.90;;;;;;5009187;28;20122;-64
2022/03/03 03:55:08;;;;;;;39.13;23.20;;;7.60;99.90;;;;;;5004941;28;20200;-64
2022/03/03 03:57:38;;;;;;;44.97;23.90;;;7.60;99.90;;;;;;4990012;28;20100;-64
2022/03/03 04:00:06;;;;;;;46.60;24.55;;;7.60;99.90;;;;;;4994283;28;20058;-65
2022/03/03 04:02:33;;;;;;;39.97;23.95;;;7.50;99.90;;;;;;5003665;28;20041;-65
2022/03/03 04:05:00;;;;;;;44.58;24.35;;;7.50;99.90;;;;;;4998691;28;20099;-65
2022/03/03 04:07:28;;;;;;;48.10;25.52;;;7.50;99.90;;;;;;5006204;28;20045;-65
2022/03/03 04:09:55;;;;;;;41.00;23.33;;;7.50;99.90;;;;;;5004975;28;20053;-65
2022/03/03 04:12:21;;;;;;;41.78;23.83;;;7.50;99.90;;;;;;4996112;28;20096;-64
2022/03/03 04:14:48;;;;;;;37.10;22.33;;;7.40;99.90;;;;;;4995036;28;20097;-66
2022/03/03 04:17:15;;;;;;;39.55;22.80;;;7.40;99.90;;;;;;5002977;28;20409;-64
2022/03/03 04:19:42;;;;;;;41.67;24.65;;;7.40;99.90;;;;;;5005273;28;20090;-64
2022/03/03 04:22:09;;;;;;;42.13;23.23;;;7.40;99.90;;;;;;5000351;28;20054;-65
2022/03/03 04:24:36;;;;;;;42.55;25.25;;;7.30;99.90;;;;;;4992844;28;20101;-65
2022/03/03 04:27:04;;;;;;;44.35;26.52;;;7.30;99.90;;;;;;5000131;28;20125;-66
2022/03/03 04:29:31;;;;;;;41.60;24.38;;;7.30;99.90;;;;;;5009362;28;20050;-65
2022/03/03 04:31:58;;;;;;;45.15;24.80;;;7.30;99.90;;;;;;5001465;28;20100;-66
2022/03/03 04:34:25;;;;;;;43.20;26.98;;;7.20;99.90;;;;;;4990155;28;20047;-66
2022/03/03 04:36:52;;;;;;;48.38;24.02;;;7.30;99.90;;;;;;4990419;28;20105;-66
2022/03/03 04:39:19;;;;;;;42.83;24.42;;;7.20;99.90;;;;;;4973097;28;20070;-66
2022/03/03 04:41:46;;;;;;;44.80;23.17;;;7.20;99.90;;;;;;4994309;28;20096;-64
2022/03/03 04:44:13;;;;;;;45.03;26.00;;;7.20;99.90;;;;;;5009675;28;20085;-66
2022/03/03 04:46:40;;;;;;;40.58;24.20;;;7.20;99.90;;;;;;5004099;28;20495;-65
2022/03/03 04:49:08;;;;;;;51.75;25.90;;;7.20;99.90;;;;;;4990362;28;20057;-65
2022/03/03 04:51:39;;;;;;;40.65;24.38;;;7.10;99.90;;;;;;4994052;28;20066;-65
2022/03/03 04:54:07;;;;;;;44.95;24.25;;;7.10;99.90;;;;;;5006011;28;20444;-65
2022/03/03 04:56:34;;;;;;;45.75;26.02;;;7.10;99.90;;;;;;5003919;28;20069;-65
2022/03/03 04:59:01;;;;;;;42.03;24.67;;;7.10;99.90;;;;;;4976674;28;20089;-65
2022/03/03 05:01:28;;;;;;;42.95;24.40;;;7.10;99.90;;;;;;4993687;28;20108;-63
2022/03/03 05:03:55;;;;;;;41.78;25.70;;;7.00;99.90;;;;;;5003515;28;20080;-65
2022/03/03 05:06:22;;;;;;;39.10;24.45;;;7.10;99.90;;;;;;4988481;28;20077;-65
2022/03/03 05:08:49;;;;;;;47.47;24.98;;;7.10;99.90;;;;;;5000089;28;20080;-65
2022/03/03 05:11:16;;;;;;;46.67;25.63;;;7.00;99.90;;;;;;4993041;28;20056;-65
2022/03/03 05:13:42;;;;;;;45.97;24.98;;;7.00;99.90;;;;;;4997390;28;20092;-66
2022/03/03 05:16:09;;;;;;;45.25;26.05;;;7.00;99.90;;;;;;5007064;28;20109;-65
2022/03/03 05:18:36;;;;;;;42.50;24.75;;;7.00;99.90;;;;;;4999732;28;20481;-67
2022/03/03 05:21:03;;;;;;;50.05;26.30;;;7.00;99.90;;;;;;4989420;28;20081;-65
2022/03/03 05:23:30;;;;;;;47.58;28.23;;;6.90;99.90;;;;;;4978845;28;20058;-64
2022/03/03 05:25:57;;;;;;;48.38;27.90;;;6.90;99.90;;;;;;4991818;28;20089;-64
2022/03/03 05:28:24;;;;;;;49.72;27.00;;;6.90;99.90;;;;;;5001775;28;20053;-65
2022/03/03 05:30:51;;;;;;;50.05;27.52;;;6.90;99.90;;;;;;4988666;28;20418;-66
2022/03/03 05:33:17;;;;;;;44.75;25.70;;;6.90;99.90;;;;;;4991373;28;20056;-65
2022/03/03 05:35:44;;;;;;;45.88;26.83;;;6.90;99.90;;;;;;4988792;28;20057;-64
2022/03/03 05:38:11;;;;;;;43.70;25.88;;;6.90;99.90;;;;;;4974966;28;20523;-65
2022/03/03 05:40:38;;;;;;;46.30;25.85;;;6.90;99.90;;;;;;4991073;28;20047;-64
2022/03/03 05:43:05;;;;;;;50.10;27.05;;;6.90;99.90;;;;;;4992313;28;20069;-65
2022/03/03 05:45:37;;;;;;;44.55;25.98;;;6.90;99.90;;;;;;5003504;28;20060;-65
2022/03/03 05:48:04;;;;;;;48.78;28.65;;;6.90;99.90;;;;;;5001966;28;20485;-65
2022/03/03 05:50:31;;;;;;;48.38;26.98;;;6.80;99.90;;;;;;4994515;28;20093;-65
2022/03/03 05:53:02;;;;;;;49.50;26.38;;;6.90;99.90;;;;;;4992428;28;20042;-65
2022/03/03 05:55:29;;;;;;;44.33;26.15;;;6.90;99.90;;;;;;4999152;28;20108;-65
2022/03/03 05:57:56;;;;;;;45.38;26.83;;;6.90;99.90;;;;;;5002721;28;20050;-62
2022/03/03 06:00:23;;;;;;;42.92;25.27;;;6.80;99.90;;;;;;4974389;28;20054;-64
2022/03/03 06:02:54;;;;;;;53.22;27.05;;;6.90;99.90;;;;;;4986829;28;20100;-65
2022/03/03 06:05:23;;;;;;;46.95;27.15;;;6.90;99.90;;;;;;4999451;28;20073;-65
2022/03/03 06:07:55;;;;;;;45.72;27.00;;;6.90;99.90;;;;;;4972406;28;20042;-65
2022/03/03 06:10:23;;;;;;;48.67;26.75;;;6.90;99.90;;;;;;4996754;28;20085;-65
2022/03/03 06:12:54;;;;;;;42.75;25.65;;;6.90;99.90;;;;;;5006597;28;20485;-66
2022/03/03 06:15:22;;;;;;;46.92;26.70;;;6.90;99.90;;;;;;4999449;28;20105;-65
2022/03/03 06:17:50;;;;;;;49.63;28.73;;;6.90;99.90;;;;;;4974534;28;20074;-66
2022/03/03 06:20:18;;;;;;;48.95;27.10;;;6.90;99.90;;;;;;4986367;28;20050;-66
2022/03/03 06:22:45;;;;;;;45.92;26.73;;;6.90;99.90;;;;;;4974429;28;20057;-65
2022/03/03 06:25:13;;;;;;;48.83;27.55;;;6.90;99.90;;;;;;4996361;28;20054;-64
2022/03/03 06:27:39;;;;;;;49.10;27.25;;;6.90;99.90;;;;;;5010771;28;20073;-64
2022/03/03 06:30:07;;;;;;;51.10;28.83;;;6.90;99.90;;;;;;5006206;28;20073;-65
2022/03/03 06:32:34;;;;;;;48.90;26.90;;;6.90;99.90;;;;;;5008619;28;20056;-65
2022/03/03 06:35:03;;;;;;;46.47;26.77;;;6.90;99.90;;;;;;5003025;28;20050;-66
2022/03/03 06:37:30;;;;;;;53.10;28.38;;;6.90;99.90;;;;;;5003459;28;20046;-66
2022/03/03 06:39:56;;;;;;;46.33;28.42;;;6.80;99.90;;;;;;4999521;28;20082;-65
2022/03/03 06:42:26;;;;;;;45.33;27.13;;;6.90;99.90;;;;;;4985773;28;20050;-66
2022/03/03 06:44:54;;;;;;;49.53;28.63;;;6.80;99.90;;;;;;5001529;28;20828;-66
2022/03/03 06:47:21;;;;;;;43.00;27.58;;;6.80;99.90;;;;;;4997398;28;20061;-65
2022/03/03 06:49:49;;;;;;;47.08;27.35;;;6.80;99.90;;;;;;4984868;28;20065;-65
2022/03/03 06:52:16;;;;;;;51.80;28.45;;;6.80;99.90;;;;;;4990973;28;20495;-66
2022/03/03 06:54:44;;;;;;;51.22;28.58;;;6.80;99.90;;;;;;5007188;28;20073;-69
2022/03/03 06:57:11;;;;;;;44.57;25.97;;;6.80;99.90;;;;;;4659869;28;10000026;-64
2022/03/03 06:59:38;;;;;;;49.60;27.45;;;6.80;99.90;;;;;;5005525;28;20201;-65
2022/03/03 07:02:09;;;;;;;45.38;26.80;;;6.80;99.90;;;;;;4998730;28;20051;-65
2022/03/03 07:04:36;;;;;;;47.63;28.73;;;6.80;99.90;;;;;;4971411;28;20141;-71
2022/03/03 07:07:03;;;;;;;54.00;29.88;;;6.80;99.90;;;;;;4979182;28;20093;-66
2022/03/03 07:09:30;;;;;;;46.15;27.30;;;6.80;99.90;;;;;;4999317;28;20787;-65
2022/03/03 07:11:58;;;;;;;46.28;27.63;;;6.80;99.90;;;;;;4994949;28;20050;-65
2022/03/03 07:14:25;;;;;;;53.00;28.90;;;6.90;99.90;;;;;;4998178;28;20417;-63
2022/03/03 07:17:01;;;;;;;54.45;29.70;;;6.90;99.90;;;;;;4994526;28;20073;-64
2022/03/03 07:19:39;;;;;;;55.42;28.10;;;6.90;99.90;;;;;;4999620;28;20049;-64
2022/03/03 07:22:12;;;;;;;47.28;29.05;;;7.00;99.90;;;;;;4995498;28;20086;-64
2022/03/03 07:24:52;;;;;;;51.50;29.15;;;7.00;99.90;;;;;;5004487;28;20086;-63
2022/03/03 07:27:23;;;;;;;57.63;29.02;;;7.00;99.90;;;;;;4985113;28;20496;-64
2022/03/03 07:29:55;;;;;;;53.72;31.52;;;7.10;99.90;;;;;;4988326;28;20050;-65
2022/03/03 07:32:34;;;;;;;49.72;27.80;;;7.10;99.90;;;;;;4982359;28;20497;-65
2022/03/03 07:35:09;;;;;;;58.03;30.92;;;7.10;99.90;;;;;;4996655;28;20516;-67
2022/03/03 07:37:40;;;;;;;49.53;29.58;;;7.20;99.90;;;;;;4999522;28;20566;-64
2022/03/03 07:40:09;;;;;;;51.88;28.98;;;7.20;99.90;;;;;;4998965;28;20046;-61
2022/03/03 07:42:39;;;;;;;59.55;29.98;;;7.30;99.90;;;;;;4994497;28;20054;-64
2022/03/03 07:45:07;;;;;;;54.17;30.35;;;7.40;99.90;;;;;;4997199;28;20050;-64
2022/03/03 07:47:35;;;;;;;54.65;31.88;;;7.40;99.90;;;;;;4997584;28;20054;-64
2022/03/03 07:50:02;;;;;;;54.60;30.08;;;7.50;99.90;;;;;;4997876;28;20038;-64
2022/03/03 07:52:29;;;;;;;53.13;30.95;;;7.60;99.90;;;;;;4996171;28;20050;-64
2022/03/03 07:54:56;;;;;;;53.05;29.52;;;7.60;99.90;;;;;;4997019;28;20045;-64
2022/03/03 07:57:25;;;;;;;54.90;29.60;;;7.70;99.90;;;;;;4997493;28;20042;-64
2022/03/03 07:59:59;;;;;;;54.75;29.85;;;7.80;99.90;;;;;;4996273;28;20086;-65
2022/03/03 08:02:26;;;;;;;52.00;32.08;;;7.80;99.90;;;;;;4995490;28;20116;-64
2022/03/03 08:04:53;;;;;;;50.35;30.15;;;7.90;99.90;;;;;;4978818;28;20110;-66
2022/03/03 08:07:20;;;;;;;47.08;29.45;;;8.00;99.90;;;;;;4992308;28;20108;-64
2022/03/03 08:09:48;;;;;;;51.00;29.10;;;8.00;99.90;;;;;;4996955;28;20064;-65
2022/03/03 08:12:15;;;;;;;53.00;30.42;;;8.10;99.90;;;;;;5003453;28;20054;-63
2022/03/03 08:14:42;;;;;;;48.50;29.90;;;8.20;99.90;;;;;;4998401;28;20105;-64
2022/03/03 08:17:13;;;;;;;53.20;31.25;;;8.20;99.90;;;;;;4988099;28;20100;-65
2022/03/03 08:19:40;;;;;;;55.55;32.95;;;8.30;99.90;;;;;;4995663;28;20053;-64
2022/03/03 08:22:07;;;;;;;54.45;31.75;;;8.40;99.90;;;;;;5005163;28;20151;-64
2022/03/03 08:24:35;;;;;;;51.42;30.55;;;8.50;99.90;;;;;;4981062;28;20050;-64
2022/03/03 08:27:03;;;;;;;52.65;32.10;;;8.60;99.90;;;;;;4986966;28;20572;-64
2022/03/03 08:29:29;;;;;;;58.78;30.67;;;8.70;99.90;;;;;;4992437;28;20109;-65
2022/03/03 08:31:57;;;;;;;50.72;30.52;;;8.70;99.90;;;;;;4988703;28;20793;-65
2022/03/03 08:34:43;;;;;;;50.35;30.13;;;8.80;99.90;;;;;;5000755;28;20501;-65
2022/03/03 08:37:29;;;;;;;53.45;30.42;;;8.90;99.90;;;;;;4987721;28;20047;-64
2022/03/03 08:39:57;;;;;;;51.50;30.85;;;8.90;99.90;;;;;;4978838;28;20081;-64
2022/03/03 08:42:27;;;;;;;50.63;29.67;;;9.00;99.90;;;;;;4989474;28;20116;-65
2022/03/03 08:44:54;;;;;;;60.85;32.20;;;9.00;99.90;;;;;;4986076;28;20057;-64
2022/03/03 08:47:21;;;;;;;50.85;31.38;;;9.10;99.90;;;;;;4971847;28;20097;-64
2022/03/03 08:49:57;;;;;;;50.13;29.90;;;9.10;99.90;;;;;;4992556;28;20115;-64
2022/03/03 08:52:43;;;;;;;51.60;32.00;;;9.20;99.90;;;;;;4988279;28;20104;-65
2022/03/03 08:55:11;;;;;;;62.08;32.05;;;9.20;99.90;;;;;;4993004;28;20560;-64
2022/03/03 08:57:38;;;;;;;49.95;29.65;;;9.20;99.90;;;;;;5007567;28;20045;-64
2022/03/03 09:00:06;;;;;;;47.38;30.73;;;9.20;99.90;;;;;;4975711;28;20041;-65
2022/03/03 09:02:33;;;;;;;46.20;28.75;;;9.20;99.90;;;;;;4991196;28;20693;-65
2022/03/03 09:05:00;;;;;;;52.80;31.95;;;9.20;99.90;;;;;;5003612;28;20424;-65
2022/03/03 09:07:27;;;;;;;46.60;28.58;;;9.20;99.90;;;;;;4992506;28;20418;-64
2022/03/03 09:09:54;;;;;;;47.90;28.38;;;9.20;99.90;;;;;;4993116;28;20080;-65
2022/03/03 09:12:22;;;;;;;45.83;28.10;;;9.30;99.90;;;;;;5003167;28;20103;-64
2022/03/03 09:14:48;;;;;;;46.13;28.00;;;9.40;99.90;;;;;;5004274;28;20426;-64
2022/03/03 09:20:39;;;;;;;46.55;28.55;;;9.40;99.90;;;;;;4984385;28;20129;-64
2022/03/03 09:23:06;;;;;;;44.60;29.23;;;9.40;99.90;;;;;;4964479;28;20059;-59
2022/03/03 09:25:36;;;;;;;43.25;24.58;;;9.50;99.90;;;;;;4996133;28;20071;-61
2022/03/03 09:28:06;;;;;;;42.67;27.25;;;9.50;99.90;;;;;;4996096;28;20679;-60
2022/03/03 09:30:32;;;;;;;46.92;26.95;;;9.50;99.90;;;;;;4996922;28;20066;-62
2022/03/03 09:32:59;;;;;;;40.70;27.17;;;9.50;99.90;;;;;;4961332;28;20094;-64
2022/03/03 09:35:26;;;;;;;49.55;28.13;;;9.50;99.90;;;;;;4969454;28;20059;-61
2022/03/03 09:37:54;;;;;;;49.38;27.90;;;9.50;99.90;;;;;;4980182;28;20078;-61
2022/03/03 09:40:21;;;;;;;42.63;26.67;;;9.60;99.90;;;;;;4997056;28;20123;-61
2022/03/03 09:42:59;;;;;;;42.05;25.83;;;9.60;99.90;;;;;;4980480;28;20043;-61
2022/03/03 09:45:25;;;;;;;49.55;28.27;;;9.60;99.90;;;;;;4996891;28;20035;-61
2022/03/03 09:47:54;;;;;;;47.75;25.70;;;9.70;99.90;;;;;;4980362;28;20043;-61
2022/03/03 09:50:21;;;;;;;42.55;25.60;;;9.80;99.90;;;;;;4981694;28;20035;-62
2022/03/03 09:52:49;;;;;;;51.05;27.48;;;9.80;99.90;;;;;;5002639;28;20054;-59
2022/03/03 09:55:16;;;;;;;38.35;25.48;;;9.90;99.90;;;;;;4970735;28;20050;-61
2022/03/03 09:57:43;;;;;;;47.03;26.35;;;10.00;99.90;;;;;;5003123;28;20071;-60
2022/03/03 10:00:11;;;;;;;41.25;25.42;;;10.10;99.90;;;;;;5003488;28;20122;-60
2022/03/03 10:02:57;;;;;;;41.15;26.27;;;10.20;99.90;;;;;;5002446;28;20035;-60
2022/03/03 10:05:32;;;;;;;42.90;25.38;;;10.20;99.90;;;;;;4986517;28;20034;-60
2022/03/03 10:08:03;;;;;;;44.00;25.48;;;10.30;99.90;;;;;;4970472;28;20051;-60
2022/03/03 10:10:30;;;;;;;42.45;24.05;;;10.30;99.90;;;;;;4983879;28;20043;-60
2022/03/03 10:12:57;;;;;;;40.47;23.92;;;10.30;99.90;;;;;;5002765;28;20074;-60
2022/03/03 10:15:26;;;;;;;38.13;22.58;;;10.30;99.90;;;;;;5003478;28;20046;-61
2022/03/03 10:18:06;;;;;;;42.65;22.40;;;10.30;99.90;;;;;;4953912;28;20038;-60
2022/03/03 10:20:51;;;;;;;37.15;22.67;;;10.40;99.90;;;;;;5002081;28;20045;-61
2022/03/03 10:23:22;;;;;;;47.45;23.10;;;10.40;99.90;;;;;;4986249;28;20041;-60
2022/03/03 10:25:49;;;;;;;41.70;23.33;;;10.50;99.90;;;;;;4986485;28;20082;-61
2022/03/03 10:28:16;;;;;;;44.13;24.08;;;10.60;99.90;;;;;;4982969;28;20059;-61
2022/03/03 10:30:52;;;;;;;41.97;24.88;;;10.70;99.90;;;;;;4986588;28;20045;-61
2022/03/03 10:33:21;;;;;;;45.42;23.08;;;10.70;99.90;;;;;;5002569;28;20086;-60
2022/03/03 10:36:14;;;;;;;39.83;22.02;;;10.80;99.90;;;;;;4986488;28;20027;-60
2022/03/03 10:38:45;;;;;;;45.67;24.67;;;10.80;99.90;;;;;;4657367;28;10001416;-61
2022/03/03 10:41:32;;;;;;;40.65;22.80;;;10.80;99.90;;;;;;5002941;28;20030;-60
2022/03/03 10:44:01;;;;;;;37.38;21.70;;;10.90;99.90;;;;;;4984811;28;20062;-60
2022/03/03 10:46:28;;;;;;;37.90;21.65;;;11.00;99.90;;;;;;5002864;28;20039;-59
2022/03/03 10:48:55;;;;;;;34.72;20.73;;;11.10;99.90;;;;;;5001541;28;20046;-61
2022/03/03 10:51:24;;;;;;;33.33;19.25;;;11.10;99.90;;;;;;5003035;28;20037;-60
2022/03/03 10:53:58;;;;;;;36.10;18.42;;;11.20;99.90;;;;;;5002668;28;20046;-59
2022/03/03 10:56:24;;;;;;;37.50;19.35;;;11.20;99.90;;;;;;4982793;28;20057;-60
2022/03/03 10:58:57;;;;;;;35.50;20.77;;;11.30;99.90;;;;;;4996987;28;20054;-60
2022/03/03 11:01:29;;;;;;;33.22;20.33;;;11.40;99.90;;;;;;5001858;28;20082;-59
2022/03/03 11:03:56;;;;;;;40.20;21.00;;;11.40;99.90;;;;;;4998040;28;20062;-60
2022/03/03 11:06:29;;;;;;;31.33;20.85;;;11.50;99.90;;;;;;4983349;28;20059;-60
2022/03/03 11:09:00;;;;;;;34.72;19.17;;;11.50;99.90;;;;;;4999380;28;20050;-60
2022/03/03 11:11:26;;;;;;;39.38;21.90;;;11.50;99.90;;;;;;4968056;28;20062;-61
2022/03/03 11:13:53;;;;;;;37.92;21.83;;;11.60;99.90;;;;;;4982545;28;20062;-61
2022/03/03 11:16:22;;;;;;;36.63;23.30;;;11.60;99.90;;;;;;4978804;28;20031;-61
2022/03/03 11:18:50;;;;;;;40.45;24.13;;;11.70;99.90;;;;;;4970585;28;20043;-60
2022/03/03 11:21:16;;;;;;;50.30;23.35;;;11.80;99.90;;;;;;4998859;28;20063;-60
2022/03/03 11:23:45;;;;;;;46.78;25.23;;;11.90;99.90;;;;;;4981858;28;20043;-60
2022/03/03 11:26:34;;;;;;;45.67;22.98;;;12.10;99.90;;;;;;4968043;28;20096;-61
2022/03/03 11:29:07;;;;;;;43.30;24.48;;;12.20;99.90;;;;;;4956034;28;20026;-62
2022/03/03 11:31:34;;;;;;;40.60;22.60;;;12.40;99.90;;;;;;4982899;28;20034;-61
2022/03/03 11:34:20;;;;;;;38.70;21.55;;;12.50;99.90;;;;;;4998315;28;20027;-61
2022/03/03 11:36:57;;;;;;;38.15;19.30;;;12.50;99.90;;;;;;4953844;29;20039;-61
2022/03/03 11:39:40;;;;;;;37.50;20.10;;;12.50;99.90;;;;;;4970870;28;20058;-60
2022/03/03 11:42:18;;;;;;;40.47;21.50;;;12.50;99.90;;;;;;4998245;28;20042;-61
2022/03/03 11:44:45;;;;;;;44.25;21.48;;;12.40;99.90;;;;;;4998330;28;20051;-61
2022/03/03 11:47:25;;;;;;;29.98;17.73;;;12.30;99.90;;;;;;4982308;28;20038;-61
2022/03/03 11:50:05;;;;;;;29.95;16.30;;;12.30;99.90;;;;;;4998504;28;20103;-61
2022/03/03 11:52:34;;;;;;;28.10;13.93;;;12.30;99.90;;;;;;4998747;28;20045;-60
2022/03/03 11:55:27;;;;;;;26.05;12.73;;;12.20;99.90;;;;;;4998629;28;20091;-61
2022/03/03 11:58:04;;;;;;;24.67;12.80;;;12.20;99.90;;;;;;4998627;28;20094;-60
2022/03/03 12:00:32;;;;;;;23.05;13.70;;;12.10;99.90;;;;;;4998642;28;20046;-60
2022/03/03 12:03:03;;;;;;;25.48;14.00;;;12.00;99.90;;;;;;4996114;28;20318;-61
2022/03/03 12:05:31;;;;;;;30.52;14.65;;;12.00;99.90;;;;;;4983451;28;20031;-61
2022/03/03 12:08:00;;;;;;;36.55;16.55;;;12.00;99.90;;;;;;4996798;28;20046;-60
2022/03/03 12:10:27;;;;;;;30.73;13.25;;;12.10;99.90;;;;;;4981644;28;20035;-61
2022/03/03 12:13:26;;;;;;;26.25;13.30;;;12.10;99.90;;;;;;4998501;28;20066;-61
2022/03/03 12:16:19;;;;;;;29.02;14.45;;;12.10;99.90;;;;;;4997858;28;20027;-61
2022/03/03 12:18:47;;;;;;;39.33;15.35;;;12.00;99.90;;;;;;4998052;28;20035;-60
2022/03/03 12:21:32;;;;;;;28.17;15.05;;;12.10;99.90;;;;;;4997899;28;20039;-61
2022/03/03 12:24:14;;;;;;;26.45;14.52;;;12.10;99.90;;;;;;4991121;28;20046;-62
2022/03/03 12:26:59;;;;;;;30.08;15.75;;;12.20;99.90;;;;;;4998974;28;20054;-63
2022/03/03 12:29:41;;;;;;;27.85;14.73;;;12.20;99.90;;;;;;4997801;28;20071;-61
2022/03/03 12:32:39;;;;;;;22.20;13.40;;;12.30;99.90;;;;;;4978883;28;20046;-61
2022/03/03 12:35:12;;;;;;;28.30;13.05;;;12.40;99.90;;;;;;4998004;28;20034;-58
2022/03/03 12:37:46;;;;;;;34.72;14.57;;;12.50;99.90;;;;;;4978563;28;20063;-61
2022/03/03 12:40:18;;;;;;;33.85;14.23;;;12.50;99.90;;;;;;4981580;28;20045;-61
2022/03/03 12:42:46;;;;;;;31.35;14.13;;;12.50;99.90;;;;;;4981064;28;20093;-61
2022/03/03 12:45:17;;;;;;;32.22;15.13;;;12.50;99.90;;;;;;4997850;28;20027;-61
2022/03/03 12:47:46;;;;;;;27.95;13.25;;;12.50;99.90;;;;;;4996830;28;20046;-59